createdAt,value
2022-12-15T00:00:37.064Z,80.3
2022-12-15T00:01:40.114Z,80.1
2022-12-15T00:02:44.130Z,80.4
2022-12-15T00:03:47.971Z,80.4
2022-12-15T00:04:50.945Z,80.3
2022-12-15T00:05:53.989Z,80.2
2022-12-15T00:06:57.412Z,80.2
2022-12-15T00:08:00.638Z,80.1
2022-12-15T00:09:03.727Z,79.8
2022-12-15T00:10:06.912Z,79.4
2022-12-15T00:11:09.973Z,79.7
2022-12-15T00:12:13.559Z,79.7
2022-12-15T00:13:16.324Z,80.1
2022-12-15T00:14:19.442Z,80.2
2022-12-15T00:15:22.359Z,80
2022-12-15T00:16:25.445Z,80
2022-12-15T00:17:28.845Z,79.8
2022-12-15T00:18:31.412Z,79.7
2022-12-15T00:19:34.390Z,79.4
2022-12-15T00:20:37.447Z,79.4
2022-12-15T00:21:40.289Z,79.2
2022-12-15T00:22:43.057Z,79.3
2022-12-15T00:23:46.156Z,79.4
2022-12-15T00:24:51.332Z,79.6
2022-12-15T00:25:54.266Z,79.8
2022-12-15T00:26:57.068Z,79.8
2022-12-15T00:28:00.098Z,79.7
2022-12-15T00:29:03.757Z,79.5
2022-12-15T00:30:06.478Z,79.6
2022-12-15T00:31:09.442Z,79.5
2022-12-15T00:32:13.024Z,79.5
2022-12-15T00:33:15.801Z,79.6
2022-12-15T00:34:18.678Z,79.4
2022-12-15T00:35:21.101Z,79.1
2022-12-15T00:36:23.801Z,79.3
2022-12-15T00:37:26.386Z,79.5
2022-12-15T00:38:29.365Z,79.8
2022-12-15T00:39:32.426Z,80.2
2022-12-15T00:40:35.874Z,80.5
2022-12-15T00:41:39.280Z,80.7
2022-12-15T00:42:42.739Z,80.6
2022-12-15T00:43:45.798Z,80.7
2022-12-15T00:44:49.306Z,80.5
2022-12-15T00:45:52.358Z,80.3
2022-12-15T00:46:55.007Z,80.1
2022-12-15T00:47:58.052Z,80.1
2022-12-15T00:49:02.047Z,80.2
2022-12-15T00:50:05.361Z,80.4
2022-12-15T00:51:08.141Z,80.4
2022-12-15T00:52:11.223Z,80.3
2022-12-15T00:53:14.279Z,80.3
2022-12-15T00:54:19.400Z,80.4
2022-12-15T00:55:22.615Z,80.5
2022-12-15T00:56:25.818Z,80.4
2022-12-15T00:57:29.310Z,80.4
2022-12-15T00:58:32.613Z,80.4
2022-12-15T00:59:35.402Z,80.3
2022-12-15T01:00:38.456Z,80.2
2022-12-15T01:01:41.951Z,80.1
2022-12-15T01:02:45.837Z,79.7
2022-12-15T01:03:49.594Z,79.9
2022-12-15T01:04:52.544Z,80.4
2022-12-15T01:05:55.036Z,80.3
2022-12-15T01:06:58.158Z,80.4
2022-12-15T01:08:00.991Z,80.4
2022-12-15T01:09:04.026Z,80.4
2022-12-15T01:10:07.517Z,80.4
2022-12-15T01:11:10.299Z,80.4
2022-12-15T01:12:13.228Z,80.2
2022-12-15T01:13:16.760Z,80.2
2022-12-15T01:14:20.312Z,80.2
2022-12-15T01:15:23.108Z,80.1
2022-12-15T01:16:26.359Z,80
2022-12-15T01:17:29.395Z,79.9
2022-12-15T01:18:32.797Z,79.7
2022-12-15T01:19:35.852Z,79.6
2022-12-15T01:20:38.906Z,79.4
2022-12-15T01:21:41.333Z,80.1
2022-12-15T01:22:44.311Z,80.5
2022-12-15T01:23:47.008Z,80.4
2022-12-15T01:24:50.336Z,80.1
2022-12-15T01:25:53.305Z,80.1
2022-12-15T01:26:56.383Z,79.9
2022-12-15T01:27:59.489Z,79.8
2022-12-15T01:29:03.307Z,79.7
2022-12-15T01:30:06.060Z,79.6
2022-12-15T01:31:09.597Z,79.6
2022-12-15T01:32:12.395Z,79.6
2022-12-15T01:33:14.899Z,79.7
2022-12-15T01:34:17.756Z,79.8
2022-12-15T01:35:21.350Z,79.8
2022-12-15T01:36:24.396Z,79.7
2022-12-15T01:37:26.263Z,79.6
2022-12-15T01:38:29.360Z,79.6
2022-12-15T01:39:32.400Z,79.5
2022-12-15T01:40:34.824Z,79.7
2022-12-15T01:41:37.238Z,79.8
2022-12-15T01:42:40.010Z,79.8
2022-12-15T01:43:42.957Z,79.6
2022-12-15T01:44:46.742Z,79.5
2022-12-15T01:45:49.823Z,79.5
2022-12-15T01:46:53.125Z,79.7
2022-12-15T01:47:56.417Z,80
2022-12-15T01:48:59.582Z,80
2022-12-15T01:50:02.440Z,80
2022-12-15T01:51:05.037Z,80
2022-12-15T01:52:07.817Z,80
2022-12-15T01:53:10.627Z,79.8
2022-12-15T01:54:13.620Z,79.8
2022-12-15T01:55:16.126Z,79.7
2022-12-15T01:56:18.831Z,79.5
2022-12-15T01:57:21.897Z,79.3
2022-12-15T01:58:24.855Z,79.2
2022-12-15T01:59:28.273Z,79.1
2022-12-15T02:00:31.413Z,79.1
2022-12-15T02:01:35.497Z,79.1
2022-12-15T02:02:42.218Z,79.2
2022-12-15T02:03:45.714Z,79.3
2022-12-15T02:04:49.133Z,79.4
2022-12-15T02:05:52.193Z,79.5
2022-12-15T02:06:55.278Z,79.6
2022-12-15T02:07:58.322Z,79.6
2022-12-15T02:09:01.211Z,79.7
2022-12-15T02:10:03.228Z,79.8
2022-12-15T02:11:06.276Z,79.8
2022-12-15T02:12:09.329Z,79.8
2022-12-15T02:13:11.624Z,79.7
2022-12-15T02:14:14.765Z,79.6
2022-12-15T02:15:18.452Z,79.6
2022-12-15T02:16:21.903Z,79.5
2022-12-15T02:17:25.935Z,79.6
2022-12-15T02:18:28.493Z,79.6
2022-12-15T02:19:31.263Z,79.4
2022-12-15T02:20:33.754Z,79.4
2022-12-15T02:21:36.555Z,79.5
2022-12-15T02:22:39.680Z,79.5
2022-12-15T02:23:42.664Z,79.4
2022-12-15T02:24:51.066Z,79.4
2022-12-15T02:25:53.612Z,79.5
2022-12-15T02:26:56.971Z,79.7
2022-12-15T02:28:00.197Z,79.6
2022-12-15T02:29:03.341Z,79.6
2022-12-15T02:30:06.677Z,79.6
2022-12-15T02:31:10.679Z,79.7
2022-12-15T02:32:14.314Z,79.8
2022-12-15T02:33:17.456Z,79.8
2022-12-15T02:34:20.170Z,79.8
2022-12-15T02:35:23.815Z,80.1
2022-12-15T02:36:26.660Z,80.1
2022-12-15T02:37:29.357Z,80
2022-12-15T02:38:32.062Z,80
2022-12-15T02:39:35.144Z,79.9
2022-12-15T02:40:38.113Z,79.8
2022-12-15T02:41:41.161Z,79.9
2022-12-15T02:42:43.577Z,79.8
2022-12-15T02:43:50.888Z,79.7
2022-12-15T02:44:53.938Z,79.6
2022-12-15T02:45:57.434Z,79.5
2022-12-15T02:47:00.833Z,79.5
2022-12-15T02:48:04.357Z,79.5
2022-12-15T02:49:08.441Z,79.5
2022-12-15T02:50:11.309Z,79.3
2022-12-15T02:51:14.634Z,79.3
2022-12-15T02:52:17.392Z,79.2
2022-12-15T02:53:20.083Z,79.2
2022-12-15T02:54:23.459Z,79.1
2022-12-15T02:55:26.509Z,79.1
2022-12-15T02:56:29.563Z,79.1
2022-12-15T02:57:32.140Z,79
2022-12-15T02:58:34.942Z,79.1
2022-12-15T02:59:37.799Z,79
2022-12-15T03:00:41.312Z,79.1
2022-12-15T03:01:46.313Z,79.3
2022-12-15T03:02:54.069Z,79.5
2022-12-15T03:03:58.442Z,79.5
2022-12-15T03:05:01.955Z,79.6
2022-12-15T03:06:05.392Z,79.8
2022-12-15T03:07:08.439Z,79.9
2022-12-15T03:08:10.577Z,80
2022-12-15T03:09:13.549Z,80
2022-12-15T03:10:16.316Z,80
2022-12-15T03:11:19.303Z,80.1
2022-12-15T03:12:22.078Z,79.9
2022-12-15T03:13:25.227Z,79.9
2022-12-15T03:14:28.384Z,79.9
2022-12-15T03:15:36.656Z,79.9
2022-12-15T03:16:39.647Z,79.8
2022-12-15T03:17:42.849Z,80
2022-12-15T03:18:45.410Z,80.1
2022-12-15T03:19:50.984Z,80.1
2022-12-15T03:20:54.779Z,80.1
2022-12-15T03:21:57.834Z,80
2022-12-15T03:23:00.688Z,79.9
2022-12-15T03:24:03.413Z,79.8
2022-12-15T03:25:06.818Z,79.7
2022-12-15T03:26:09.601Z,79.7
2022-12-15T03:27:12.410Z,79.7
2022-12-15T03:28:14.826Z,79.6
2022-12-15T03:29:18.158Z,79.5
2022-12-15T03:30:20.641Z,79.4
2022-12-15T03:31:24.657Z,79.2
2022-12-15T03:32:28.148Z,79.1
2022-12-15T03:33:32.787Z,79
2022-12-15T03:34:37.525Z,78.9
2022-12-15T03:35:40.802Z,79.1
2022-12-15T03:36:43.827Z,79.2
2022-12-15T03:37:51.080Z,79.2
2022-12-15T03:38:53.791Z,79.1
2022-12-15T03:39:57.057Z,79.1
2022-12-15T03:41:00.401Z,79.2
2022-12-15T03:42:02.855Z,79.2
2022-12-15T03:43:05.551Z,79.3
2022-12-15T03:44:08.317Z,79.4
2022-12-15T03:45:11.274Z,79.4
2022-12-15T03:46:14.395Z,79.5
2022-12-15T03:47:17.439Z,79.6
2022-12-15T03:48:20.502Z,79.6
2022-12-15T03:49:22.660Z,79.4
2022-12-15T03:50:25.570Z,79.2
2022-12-15T03:51:29.356Z,79.2
2022-12-15T03:52:32.068Z,79.1
2022-12-15T03:53:35.220Z,78.9
2022-12-15T03:54:38.357Z,78.9
2022-12-15T03:55:41.140Z,78.8
2022-12-15T03:56:43.869Z,78.8
2022-12-15T03:57:46.647Z,78.9
2022-12-15T03:58:49.520Z,79
2022-12-15T03:59:52.294Z,79
2022-12-15T04:00:55.243Z,78.9
2022-12-15T04:01:58.811Z,79
2022-12-15T04:03:02.465Z,79
2022-12-15T04:04:06.750Z,79
2022-12-15T04:05:09.514Z,79
2022-12-15T04:06:12.444Z,79.1
2022-12-15T04:07:15.757Z,79
2022-12-15T04:08:19.005Z,78.9
2022-12-15T04:09:21.804Z,78.8
2022-12-15T04:10:35.685Z,78.8
2022-12-15T04:11:38.108Z,78.8
2022-12-15T04:12:40.326Z,78.9
2022-12-15T04:13:42.747Z,78.9
2022-12-15T04:14:45.526Z,78.9
2022-12-15T04:15:51.501Z,78.8
2022-12-15T04:16:55.194Z,78.9
2022-12-15T04:17:58.064Z,78.9
2022-12-15T04:19:00.864Z,78.9
2022-12-15T04:20:03.649Z,78.9
2022-12-15T04:21:07.292Z,78.8
2022-12-15T04:22:19.236Z,78.6
2022-12-15T04:23:22.947Z,78.6
2022-12-15T04:24:26.040Z,78.6
2022-12-15T04:25:28.629Z,78.5
2022-12-15T04:26:31.482Z,78.5
2022-12-15T04:27:34.254Z,78.5
2022-12-15T04:28:36.736Z,78.6
2022-12-15T04:29:39.815Z,78.5
2022-12-15T04:30:43.357Z,78.4
2022-12-15T04:31:46.537Z,78.5
2022-12-15T04:32:50.766Z,78.4
2022-12-15T04:33:53.470Z,78.5
2022-12-15T04:34:56.839Z,78.4
2022-12-15T04:36:00.001Z,78.5
2022-12-15T04:37:02.972Z,78.5
2022-12-15T04:38:05.935Z,78.5
2022-12-15T04:39:09.601Z,78.8
2022-12-15T04:40:12.646Z,79
2022-12-15T04:41:15.897Z,79.1
2022-12-15T04:42:18.867Z,79.1
2022-12-15T04:43:22.020Z,79
2022-12-15T04:44:25.090Z,78.9
2022-12-15T04:45:27.876Z,78.7
2022-12-15T04:46:31.552Z,78.8
2022-12-15T04:47:34.599Z,78.8
2022-12-15T04:48:36.752Z,78.8
2022-12-15T04:49:39.247Z,78.7
2022-12-15T04:50:42.692Z,78.8
2022-12-15T04:51:45.192Z,78.8
2022-12-15T04:52:48.626Z,78.8
2022-12-15T04:53:52.123Z,78.7
2022-12-15T04:54:55.789Z,78.5
2022-12-15T04:55:58.846Z,78.6
2022-12-15T04:57:01.347Z,78.5
2022-12-15T04:58:03.563Z,78.4
2022-12-15T04:59:05.492Z,78.5
2022-12-15T05:00:08.629Z,78.4
2022-12-15T05:01:11.738Z,78.2
2022-12-15T05:02:15.528Z,78.3
2022-12-15T05:03:19.314Z,78.5
2022-12-15T05:04:22.880Z,78.6
2022-12-15T05:05:26.207Z,78.7
2022-12-15T05:06:28.351Z,78.6
2022-12-15T05:07:31.683Z,78.6
2022-12-15T05:08:34.173Z,78.6
2022-12-15T05:09:37.960Z,78.6
2022-12-15T05:10:41.351Z,78.6
2022-12-15T05:11:44.395Z,78.5
2022-12-15T05:12:48.104Z,78.6
2022-12-15T05:13:50.870Z,78.5
2022-12-15T05:14:53.370Z,78.6
2022-12-15T05:15:56.747Z,78.5
2022-12-15T05:17:00.255Z,78.5
2022-12-15T05:18:03.133Z,78.4
2022-12-15T05:19:05.275Z,78.3
2022-12-15T05:20:07.979Z,78.2
2022-12-15T05:21:11.338Z,78.3
2022-12-15T05:22:14.712Z,78.4
2022-12-15T05:23:18.076Z,78.5
2022-12-15T05:24:21.219Z,78.5
2022-12-15T05:25:24.381Z,78.4
2022-12-15T05:26:27.864Z,78.3
2022-12-15T05:27:30.287Z,78.3
2022-12-15T05:28:33.069Z,78.3
2022-12-15T05:29:36.513Z,78.3
2022-12-15T05:30:39.476Z,78.3
2022-12-15T05:31:42.716Z,78.2
2022-12-15T05:32:45.692Z,78.2
2022-12-15T05:33:52.494Z,78.1
2022-12-15T05:34:55.340Z,78.1
2022-12-15T05:35:58.597Z,78.1
2022-12-15T05:37:01.641Z,78
2022-12-15T05:38:04.199Z,78
2022-12-15T05:39:06.612Z,78
2022-12-15T05:40:09.667Z,78
2022-12-15T05:41:12.898Z,78
2022-12-15T05:42:16.687Z,77.9
2022-12-15T05:43:28.154Z,77.8
2022-12-15T05:44:33.508Z,77.9
2022-12-15T05:45:36.484Z,78.1
2022-12-15T05:46:39.470Z,78.1
2022-12-15T05:47:42.934Z,78.4
2022-12-15T05:48:45.973Z,78.5
2022-12-15T05:49:49.291Z,78.6
2022-12-15T05:50:52.339Z,78.3
2022-12-15T05:51:55.322Z,78.3
2022-12-15T05:52:58.224Z,78.4
2022-12-15T05:54:01.203Z,78.4
2022-12-15T05:55:04.192Z,78.3
2022-12-15T05:56:06.963Z,78.3
2022-12-15T05:57:10.763Z,78.1
2022-12-15T05:58:14.584Z,78.1
2022-12-15T05:59:17.084Z,78.1
2022-12-15T06:00:20.135Z,78.2
2022-12-15T06:01:22.834Z,78.1
2022-12-15T06:02:26.032Z,78.1
2022-12-15T06:03:31.021Z,78.1
2022-12-15T06:04:35.884Z,78.1
2022-12-15T06:05:39.324Z,78.1
2022-12-15T06:06:42.512Z,78.1
2022-12-15T06:07:45.090Z,78
2022-12-15T06:08:51.317Z,77.9
2022-12-15T06:09:54.026Z,78
2022-12-15T06:10:57.805Z,78.1
2022-12-15T06:12:00.946Z,78.1
2022-12-15T06:13:04.099Z,78.1
2022-12-15T06:14:07.773Z,78
2022-12-15T06:15:10.518Z,78
2022-12-15T06:16:14.621Z,78
2022-12-15T06:17:17.575Z,78
2022-12-15T06:18:20.033Z,78
2022-12-15T06:19:22.810Z,78
2022-12-15T06:20:26.221Z,78.1
2022-12-15T06:21:29.093Z,78.1
2022-12-15T06:22:31.897Z,78.1
2022-12-15T06:23:35.529Z,78.1
2022-12-15T06:24:38.579Z,78.1
2022-12-15T06:25:41.360Z,78
2022-12-15T06:26:44.058Z,78.1
2022-12-15T06:27:47.110Z,78.1
2022-12-15T06:28:51.277Z,78.2
2022-12-15T06:29:54.652Z,78.4
2022-12-15T06:30:57.869Z,78.4
2022-12-15T06:32:01.065Z,78.5
2022-12-15T06:33:04.295Z,78.2
2022-12-15T06:34:07.941Z,78.1
2022-12-15T06:35:11.059Z,78.1
2022-12-15T06:36:14.047Z,78.1
2022-12-15T06:37:16.558Z,78
2022-12-15T06:38:19.259Z,78.1
2022-12-15T06:39:22.308Z,78.1
2022-12-15T06:40:25.010Z,77.9
2022-12-15T06:41:27.455Z,77.9
2022-12-15T06:42:29.972Z,77.9
2022-12-15T06:43:35.254Z,77.8
2022-12-15T06:44:38.998Z,77.9
2022-12-15T06:45:42.724Z,78
2022-12-15T06:46:52.199Z,78.3
2022-12-15T06:48:02.926Z,78.5
2022-12-15T06:49:06.256Z,78.6
2022-12-15T06:50:08.676Z,78.6
2022-12-15T06:51:18.413Z,78.8
2022-12-15T06:52:20.827Z,79
2022-12-15T06:53:24.188Z,78.9
2022-12-15T06:54:26.677Z,78.9
2022-12-15T06:55:30.034Z,78.9
2022-12-15T06:56:35.932Z,79
2022-12-15T06:57:39.289Z,79.2
2022-12-15T06:58:42.135Z,79.4
2022-12-15T06:59:45.906Z,79.5
2022-12-15T07:00:49.377Z,79.5
2022-12-15T07:01:52.718Z,79.5
2022-12-15T07:02:56.490Z,79.4
2022-12-15T07:04:01.864Z,79.3
2022-12-15T07:05:06.676Z,79.4
2022-12-15T07:06:09.101Z,79.4
2022-12-15T07:07:11.940Z,79.4
2022-12-15T07:08:15.360Z,79.4
2022-12-15T07:09:17.903Z,79.5
2022-12-15T07:10:21.236Z,79.7
2022-12-15T07:11:24.303Z,79.6
2022-12-15T07:12:27.944Z,79.5
2022-12-15T07:13:32.777Z,79.5
2022-12-15T07:14:37.291Z,79.9
2022-12-15T07:15:40.855Z,80.3
2022-12-15T07:16:45.006Z,80.2
2022-12-15T07:17:48.349Z,80.2
2022-12-15T07:18:51.319Z,80.1
2022-12-15T07:19:53.834Z,80.3
2022-12-15T07:20:56.051Z,80.1
2022-12-15T07:21:59.033Z,79.9
2022-12-15T07:23:01.614Z,79.7
2022-12-15T07:24:06.782Z,79.8
2022-12-15T07:25:11.423Z,79.7
2022-12-15T07:26:13.926Z,80.1
2022-12-15T07:27:16.709Z,80.2
2022-12-15T07:28:29.926Z,80.2
2022-12-15T07:29:34.463Z,80.1
2022-12-15T07:30:40.501Z,80.2
2022-12-15T07:31:44.384Z,80.4
2022-12-15T07:32:51.723Z,80.4
2022-12-15T07:33:54.291Z,80.6
2022-12-15T07:34:57.614Z,80.5
2022-12-15T07:36:00.093Z,80.3
2022-12-15T07:37:03.554Z,80.5
2022-12-15T07:38:06.121Z,80.5
2022-12-15T07:39:09.785Z,80.8
2022-12-15T07:40:12.527Z,80.8
2022-12-15T07:41:15.754Z,80.7
2022-12-15T07:42:18.529Z,80.5
2022-12-15T07:43:21.318Z,80.4
2022-12-15T07:44:24.186Z,80.3
2022-12-15T07:45:26.971Z,80.2
2022-12-15T07:46:31.332Z,80.2
2022-12-15T07:47:35.413Z,80.2
2022-12-15T07:48:38.866Z,80.4
2022-12-15T07:49:42.579Z,80.6
2022-12-15T07:50:45.671Z,80.8
2022-12-15T07:51:53.348Z,80.8
2022-12-15T07:52:56.493Z,80.8
2022-12-15T07:53:59.270Z,80.9
2022-12-15T07:55:02.875Z,81
2022-12-15T07:56:11.123Z,81
2022-12-15T07:57:13.643Z,80.9
2022-12-15T07:58:16.141Z,81
2022-12-15T07:59:19.195Z,80.8
2022-12-15T08:00:22.469Z,80.9
2022-12-15T08:01:25.949Z,80.9
2022-12-15T08:02:30.320Z,80.8
2022-12-15T08:03:38.144Z,80.6
2022-12-15T08:04:44.445Z,80.5
2022-12-15T08:05:47.215Z,80.5
2022-12-15T08:06:50.652Z,80.5
2022-12-15T08:07:54.069Z,80.4
2022-12-15T08:08:56.954Z,80.4
2022-12-15T08:09:59.797Z,80.4
2022-12-15T08:11:03.223Z,80.4
2022-12-15T08:12:06.636Z,80.5
2022-12-15T08:13:09.561Z,80.4
2022-12-15T08:14:20.498Z,80.4
2022-12-15T08:15:24.767Z,80.3
2022-12-15T08:16:28.410Z,80.3
2022-12-15T08:17:31.987Z,80.3
2022-12-15T08:18:35.039Z,80.2
2022-12-15T08:19:39.213Z,80.2
2022-12-15T08:20:42.784Z,80.1
2022-12-15T08:21:45.559Z,79.9
2022-12-15T08:22:48.682Z,79.8
2022-12-15T08:23:51.731Z,79.7
2022-12-15T08:24:55.198Z,79.6
2022-12-15T08:25:58.531Z,79.5
2022-12-15T08:27:01.121Z,79.2
2022-12-15T08:28:03.905Z,79.2
2022-12-15T08:29:53.647Z,79.1
2022-12-15T08:30:56.426Z,78.8
2022-12-15T08:32:00.212Z,78.8
2022-12-15T08:33:03.826Z,78.7
2022-12-15T08:34:06.676Z,78.7
2022-12-15T08:35:58.020Z,78.6
2022-12-15T08:37:02.027Z,79.1
2022-12-15T08:38:07.117Z,79
2022-12-15T08:39:10.247Z,79
2022-12-15T08:40:13.692Z,79
2022-12-15T08:41:16.462Z,78.8
2022-12-15T08:42:19.238Z,78.6
2022-12-15T08:43:22.377Z,78.6
2022-12-15T08:44:25.432Z,78.4
2022-12-15T08:45:28.681Z,78.3
2022-12-15T08:46:31.791Z,78.3
2022-12-15T08:47:35.064Z,78.3
2022-12-15T08:48:38.463Z,78.2
2022-12-15T08:49:41.878Z,78
2022-12-15T08:50:44.965Z,77.8
2022-12-15T08:51:51.712Z,77.6
2022-12-15T08:53:32.932Z,77.4
2022-12-15T08:54:35.936Z,77.1
2022-12-15T08:55:38.361Z,77
2022-12-15T08:56:41.061Z,76.9
2022-12-15T08:57:43.893Z,76.8
2022-12-15T08:58:47.704Z,76.9
2022-12-15T08:59:50.967Z,76.9
2022-12-15T09:00:54.343Z,77
2022-12-15T09:01:58.399Z,76.9
2022-12-15T09:03:01.741Z,76.7
2022-12-15T09:04:04.677Z,76.3
2022-12-15T09:05:08.148Z,76
2022-12-15T09:06:11.854Z,75.9
2022-12-15T09:07:15.928Z,75.6
2022-12-15T09:08:19.568Z,75.6
2022-12-15T09:09:23.298Z,75.6
2022-12-15T09:10:26.661Z,75.6
2022-12-15T09:11:29.823Z,75.6
2022-12-15T09:12:33.247Z,75.6
2022-12-15T09:13:37.250Z,75.5
2022-12-15T09:14:40.017Z,75.3
2022-12-15T09:16:12.205Z,75.3
2022-12-15T09:17:16.424Z,75.1
2022-12-15T09:18:19.869Z,75.1
2022-12-15T09:19:22.645Z,74.9
2022-12-15T09:20:26.628Z,75.1
2022-12-15T09:21:30.104Z,75.5
2022-12-15T09:22:33.894Z,75.6
2022-12-15T09:23:38.242Z,75.8
2022-12-15T09:24:41.570Z,75.7
2022-12-15T09:25:44.612Z,75.7
2022-12-15T09:26:47.096Z,75.6
2022-12-15T09:27:50.132Z,75.6
2022-12-15T09:28:53.547Z,75.4
2022-12-15T09:29:57.177Z,74.9
2022-12-15T09:30:59.639Z,74.6
2022-12-15T09:32:10.619Z,74.4
2022-12-15T09:33:17.474Z,74.1
2022-12-15T09:34:20.814Z,74.3
2022-12-15T09:35:23.039Z,74.2
2022-12-15T09:36:26.291Z,74.2
2022-12-15T09:37:29.672Z,74.1
2022-12-15T09:38:33.511Z,73.8
2022-12-15T09:39:37.281Z,73.7
2022-12-15T09:40:40.158Z,73.5
2022-12-15T09:41:43.209Z,73.6
2022-12-15T09:43:34.888Z,73.5
2022-12-15T09:44:52.032Z,72.8
2022-12-15T09:45:56.332Z,71.6
2022-12-15T09:46:59.766Z,70.8
2022-12-15T09:48:02.839Z,70.7
2022-12-15T09:49:05.889Z,70.8
2022-12-15T09:50:09.150Z,70.9
2022-12-15T09:51:12.942Z,70.5
2022-12-15T09:52:15.942Z,70.6
2022-12-15T09:53:58.050Z,70.2
2022-12-15T09:55:04.853Z,69.6
2022-12-15T09:56:07.839Z,69.8
2022-12-15T09:57:11.450Z,69.5
2022-12-15T09:58:14.496Z,69.5
2022-12-15T09:59:17.274Z,69.3
2022-12-15T10:00:20.304Z,69.2
2022-12-15T10:01:24.219Z,68.9
2022-12-15T10:02:28.001Z,68.8
2022-12-15T10:03:34.578Z,68.4
2022-12-15T10:04:39.023Z,68.1
2022-12-15T15:03:25.172Z,67.9
2022-12-15T15:04:29.403Z,83.3
2022-12-15T15:05:32.109Z,83.3
2022-12-15T15:06:36.075Z,83.2
2022-12-15T15:07:38.927Z,83.2
2022-12-15T15:08:42.255Z,83.2
2022-12-15T15:09:44.950Z,83.1
2022-12-15T15:10:48.559Z,83.1
2022-12-15T15:11:52.768Z,83.1
2022-12-15T15:12:56.213Z,83.1
2022-12-15T15:13:59.283Z,83.1
2022-12-15T15:15:02.766Z,83.2
2022-12-15T15:16:06.075Z,83.2
2022-12-15T15:17:09.330Z,83.4
2022-12-15T15:18:13.649Z,83.3
2022-12-15T15:19:17.097Z,83.4
2022-12-15T15:20:21.285Z,83.5
2022-12-15T15:21:23.985Z,83.5
2022-12-15T15:22:27.275Z,83.4
2022-12-15T15:23:29.973Z,83.3
2022-12-15T15:24:33.964Z,83.3
2022-12-15T15:25:42.152Z,83.3
2022-12-15T15:26:45.057Z,83.2
2022-12-15T15:27:48.197Z,83.1
2022-12-15T15:28:51.182Z,83.2
2022-12-15T15:29:54.541Z,83.2
2022-12-15T15:30:58.339Z,83.1
2022-12-15T15:32:01.208Z,83.1
2022-12-15T15:33:04.559Z,83.1
2022-12-15T15:34:07.801Z,83
2022-12-15T15:35:11.296Z,83
2022-12-15T15:36:15.175Z,83
2022-12-15T15:37:19.810Z,83
2022-12-15T15:38:22.300Z,83
2022-12-15T15:39:25.385Z,83
2022-12-15T15:40:28.794Z,83
2022-12-15T15:41:31.494Z,82.9
2022-12-15T15:42:35.201Z,82.9
2022-12-15T15:43:37.776Z,82.9
2022-12-15T15:44:41.217Z,82.8
2022-12-15T15:45:44.678Z,82.7
2022-12-15T15:46:47.633Z,82.7
2022-12-15T15:47:56.649Z,82.6
2022-12-15T15:49:00.311Z,82.5
2022-12-15T15:50:04.036Z,82.6
2022-12-15T15:51:06.913Z,82.6
2022-12-15T15:52:10.914Z,82.7
2022-12-15T15:53:14.518Z,82.8
2022-12-15T15:54:17.921Z,82.8
2022-12-15T15:55:20.334Z,82.8
2022-12-15T15:56:23.462Z,82.9
2022-12-15T15:57:26.721Z,82.9
2022-12-15T15:58:31.476Z,83.1
2022-12-15T15:59:36.323Z,83.2
2022-12-15T16:00:39.465Z,83.2
2022-12-15T16:01:43.713Z,83.5
2022-12-15T16:02:48.231Z,83.7
2022-12-15T16:03:51.706Z,83.8
2022-12-15T16:04:54.979Z,83.8
2022-12-15T16:05:58.404Z,83.7
2022-12-15T16:07:01.793Z,83.7
2022-12-15T16:08:05.324Z,83.7
2022-12-15T16:09:09.388Z,83.6
2022-12-15T16:10:12.374Z,83.7
2022-12-15T16:11:15.706Z,83.7
2022-12-15T16:12:19.404Z,83.7
2022-12-15T16:13:27.695Z,83.6
2022-12-15T16:14:31.088Z,83.5
2022-12-15T16:15:34.586Z,83.4
2022-12-15T16:16:37.747Z,83.4
2022-12-15T16:17:41.107Z,83.4
2022-12-15T16:18:44.507Z,83.4
2022-12-15T16:19:47.209Z,83.3
2022-12-15T16:20:49.905Z,83.3
2022-12-15T16:21:52.854Z,83.3
2022-12-15T16:22:55.864Z,83.3
2022-12-15T16:24:00.186Z,83.3
2022-12-15T16:25:03.077Z,83.3
2022-12-15T16:26:06.007Z,83.3
2022-12-15T16:27:08.777Z,83.3
2022-12-15T16:28:12.376Z,83.4
2022-12-15T16:29:14.928Z,83.5
2022-12-15T16:30:18.448Z,83.6
2022-12-15T16:31:21.921Z,83.6
2022-12-15T16:32:25.849Z,83.6
2022-12-15T16:33:28.582Z,83.5
2022-12-15T16:34:31.939Z,83.6
2022-12-15T16:35:35.268Z,83.4
2022-12-15T16:36:38.082Z,83.4
2022-12-15T16:37:41.112Z,83.5
2022-12-15T16:38:44.137Z,83.4
2022-12-15T16:39:47.952Z,83.4
2022-12-15T16:40:51.195Z,83.3
2022-12-15T16:41:58.416Z,83.4
2022-12-15T16:43:01.539Z,83.3
2022-12-15T16:44:04.332Z,83.3
2022-12-15T16:45:07.460Z,83.2
2022-12-15T16:46:10.268Z,83.2
2022-12-15T16:47:13.535Z,83.2
2022-12-15T16:48:17.326Z,83.3
2022-12-15T16:49:21.173Z,83.3
2022-12-15T16:50:24.153Z,83.3
2022-12-15T16:51:26.446Z,83.3
2022-12-15T16:52:29.811Z,83.3
2022-12-15T16:53:32.818Z,83.3
2022-12-15T16:54:35.967Z,83.3
2022-12-15T16:55:41.737Z,83.4
2022-12-15T16:56:44.152Z,83.3
2022-12-15T16:57:47.507Z,83.2
2022-12-15T16:59:35.518Z,83.1
2022-12-15T17:00:39.855Z,83.1
2022-12-15T17:01:43.627Z,83.1
2022-12-15T17:02:47.679Z,83.1
2022-12-15T17:03:52.068Z,83.1
2022-12-15T17:04:55.475Z,82.9
2022-12-15T17:05:58.930Z,82.9
2022-12-15T17:07:02.436Z,82.9
2022-12-15T17:08:04.934Z,82.8
2022-12-15T17:09:08.063Z,82.7
2022-12-15T17:10:11.468Z,82.6
2022-12-15T17:11:15.527Z,82.7
2022-12-15T17:12:18.305Z,82.7
2022-12-15T17:13:21.306Z,82.7
2022-12-15T17:14:24.091Z,82.7
2022-12-15T17:15:27.732Z,82.6
2022-12-15T17:16:31.503Z,82.6
2022-12-15T17:17:35.095Z,82.5
2022-12-15T17:18:39.501Z,82.5
2022-12-15T17:20:31.414Z,82.4
2022-12-15T17:21:35.695Z,82.4
2022-12-15T17:22:39.223Z,82.5
2022-12-15T17:23:42.681Z,82.4
2022-12-15T17:24:45.620Z,82.5
2022-12-15T17:26:30.888Z,82.4
2022-12-15T17:27:35.312Z,82.4
2022-12-15T17:28:38.460Z,82.3
2022-12-15T17:29:41.914Z,82.3
2022-12-15T17:30:45.292Z,82.3
2022-12-15T17:31:48.941Z,82.2
2022-12-15T17:32:51.663Z,82.3
2022-12-15T17:33:54.642Z,82.2
2022-12-15T17:34:57.424Z,82.2
2022-12-15T17:36:00.498Z,82.2
2022-12-15T17:37:03.263Z,82.2
2022-12-15T17:38:06.524Z,82.3
2022-12-15T17:39:10.974Z,82.3
2022-12-15T17:40:14.368Z,82.3
2022-12-15T17:42:03.292Z,82.3
2022-12-15T17:43:07.384Z,82.3
2022-12-15T17:44:39.043Z,82.4
2022-12-15T17:45:42.668Z,82.4
2022-12-15T17:46:46.605Z,82.4
2022-12-15T17:47:49.588Z,82.4
2022-12-15T17:48:52.947Z,82.4
2022-12-15T17:49:56.272Z,82.3
2022-12-15T17:50:59.684Z,82.3
2022-12-15T17:52:02.756Z,82.3
2022-12-15T17:53:06.135Z,82.2
2022-12-15T17:54:08.661Z,82.2
2022-12-15T17:55:11.522Z,82.2
2022-12-15T17:56:14.426Z,82.1
2022-12-15T17:57:16.622Z,82.1
2022-12-15T17:58:20.179Z,82.1
2022-12-15T17:59:23.533Z,82.3
2022-12-15T18:00:26.572Z,82.4
2022-12-15T18:01:29.670Z,82.6
2022-12-15T18:02:34.191Z,82.6
2022-12-15T18:03:39.632Z,82.7
2022-12-15T18:04:43.440Z,82.6
2022-12-15T18:05:46.780Z,82.6
2022-12-15T18:06:49.473Z,82.6
2022-12-15T18:07:52.531Z,82.5
2022-12-15T18:08:55.859Z,82.7
2022-12-15T18:09:58.361Z,82.7
2022-12-15T18:11:00.803Z,82.7
2022-12-15T18:12:04.145Z,82.7
2022-12-15T18:13:06.924Z,82.6
2022-12-15T18:14:10.823Z,82.6
2022-12-15T18:15:13.525Z,82.6
2022-12-15T18:16:16.447Z,82.7
2022-12-15T18:17:20.154Z,82.7
2022-12-15T18:18:23.521Z,82.7
2022-12-15T18:19:35.987Z,82.6
2022-12-15T18:20:39.046Z,82.5
2022-12-15T18:21:42.471Z,82.6
2022-12-15T18:22:45.565Z,82.6
2022-12-15T18:23:48.125Z,82.6
2022-12-15T18:24:50.985Z,82.6
2022-12-15T18:26:03.977Z,82.5
2022-12-15T18:27:07.324Z,82.6
2022-12-15T18:28:10.218Z,82.5
2022-12-15T18:29:14.431Z,82.5
2022-12-15T18:30:17.129Z,82.5
2022-12-15T18:31:19.939Z,82.5
2022-12-15T18:32:23.492Z,82.4
2022-12-15T18:33:26.067Z,82.4
2022-12-15T18:34:29.709Z,82.4
2022-12-15T18:35:31.677Z,82.3
2022-12-15T18:36:34.824Z,82.4
2022-12-15T18:37:37.696Z,82.4
2022-12-15T18:38:41.408Z,82.3
2022-12-15T18:39:44.109Z,82.4
2022-12-15T18:40:47.593Z,82.4
2022-12-15T18:41:50.471Z,82.4
2022-12-15T18:42:53.616Z,82.4
2022-12-15T18:43:56.257Z,82.4
2022-12-15T18:44:59.775Z,82.4
2022-12-15T18:46:02.755Z,82.4
2022-12-15T18:47:06.236Z,82.3
2022-12-15T18:48:11.143Z,82.3
2022-12-15T18:49:13.934Z,82.3
2022-12-15T18:50:17.394Z,82.3
2022-12-15T18:51:20.816Z,82.4
2022-12-15T18:52:26.566Z,82.3
2022-12-15T18:53:37.484Z,82.2
2022-12-15T18:54:40.537Z,82.2
2022-12-15T18:55:43.592Z,82.2
2022-12-15T18:56:45.678Z,82.2
2022-12-15T18:57:48.731Z,82.1
2022-12-15T18:58:51.634Z,82
2022-12-15T18:59:54.664Z,82
2022-12-15T19:00:59.003Z,81.9
2022-12-15T19:02:02.370Z,81.9
2022-12-15T19:03:06.609Z,81.9
2022-12-15T19:04:10.819Z,81.7
2022-12-15T19:05:13.787Z,81.7
2022-12-15T19:06:15.928Z,81.7
2022-12-15T19:07:20.928Z,81.6
2022-12-15T19:08:23.063Z,81.7
2022-12-15T19:09:25.835Z,81.8
2022-12-15T19:10:28.811Z,81.8
2022-12-15T19:11:32.034Z,81.7
2022-12-15T19:12:35.658Z,81.7
2022-12-15T19:13:38.435Z,81.6
2022-12-15T19:14:41.029Z,81.7